Time;durP1;ratioP1;P1;durP2;ratioP2;P2;SDS_P1;SDS_P2;PMS_P1;PMS_P2;Temp;Humidity;BMP_temperature;BMP_pressure;BME280_temperature;BME280_humidity;BME280_pressure;Samples;Min_cycle;Max_cycle;Signal;HPM_P1;HPM_P2
2023/12/18 00:02:31;;;;;;;34.33;7.30;;;;;;;;;;6091701;23;20169;-90
2023/12/18 00:05:37;;;;;;;20.43;7.97;;;;;;;;;;6092286;23;20197;-89
2023/12/18 00:08:42;;;;;;;29.73;7.83;;;;;;;;;;6090568;23;20303;-89
2023/12/18 00:11:50;;;;;;;41.00;8.00;;;;;;;;;;6091529;23;20224;-89
2023/12/18 00:14:56;;;;;;;32.57;8.70;;;;;;;;;;6091208;23;20237;-89
2023/12/18 00:18:01;;;;;;;19.00;7.33;;;;;;;;;;6091401;23;20173;-90
2023/12/18 00:21:06;;;;;;;20.10;6.57;;;;;;;;;;6090149;23;20648;-90
2023/12/18 00:24:11;;;;;;;21.33;7.23;;;;;;;;;;6091267;23;20166;-90
2023/12/18 00:27:18;;;;;;;15.93;6.50;;;;;;;;;;6062628;23;20502;-91
2023/12/18 00:30:23;;;;;;;23.17;7.07;;;;;;;;;;6062394;23;20230;-91
2023/12/18 00:33:28;;;;;;;20.47;6.93;;;;;;;;;;6061911;23;20508;-90
2023/12/18 00:36:34;;;;;;;15.93;6.40;;;;;;;;;;6061874;23;20178;-89
2023/12/18 00:39:39;;;;;;;16.03;6.37;;;;;;;;;;6063273;23;20219;-90
2023/12/18 00:42:47;;;;;;;15.23;7.37;;;;;;;;;;6062968;23;20179;-90
2023/12/18 00:45:52;;;;;;;22.57;6.60;;;;;;;;;;6062693;23;20491;-87
2023/12/18 00:48:57;;;;;;;28.30;7.80;;;;;;;;;;6059933;23;20175;-90
2023/12/18 00:52:03;;;;;;;19.50;6.47;;;;;;;;;;6060685;23;20180;-89
2023/12/18 00:55:08;;;;;;;15.93;6.20;;;;;;;;;;6063181;23;20179;-90
2023/12/18 00:58:19;;;;;;;15.20;6.50;;;;;;;;;;6063142;23;20504;-91
2023/12/18 01:01:24;;;;;;;15.27;5.87;;;;;;;;;;6061747;23;20246;-89
2023/12/18 01:04:29;;;;;;;12.57;6.13;;;;;;;;;;6062690;23;20631;-90
2023/12/18 01:07:33;;;;;;;33.70;6.67;;;;;;;;;;6062875;23;20166;-90
2023/12/18 01:10:39;;;;;;;18.37;6.27;;;;;;;;;;6062250;23;20179;-91
2023/12/18 01:13:45;;;;;;;12.47;5.73;;;;;;;;;;6062282;23;20175;-89
2023/12/18 01:16:56;;;;;;;16.00;6.27;;;;;;;;;;6061824;23;20171;-89
2023/12/18 01:20:01;;;;;;;19.00;7.17;;;;;;;;;;6061628;23;20198;-88
2023/12/18 01:23:07;;;;;;;25.50;6.60;;;;;;;;;;6063171;23;20503;-90
2023/12/18 01:26:13;;;;;;;47.10;7.60;;;;;;;;;;6084891;23;20193;-89
2023/12/18 01:29:20;;;;;;;44.63;7.33;;;;;;;;;;6088669;23;20646;-90
2023/12/18 01:32:25;;;;;;;19.87;6.90;;;;;;;;;;6090482;23;20162;-91
2023/12/18 01:35:31;;;;;;;13.83;6.13;;;;;;;;;;6090950;23;20158;-89
2023/12/18 01:38:36;;;;;;;20.30;6.57;;;;;;;;;;6090345;23;20170;-89
2023/12/18 01:41:41;;;;;;;16.87;7.00;;;;;;;;;;6090210;23;20198;-91
2023/12/18 01:44:48;;;;;;;15.07;6.87;;;;;;;;;;6091227;23;20174;-90
2023/12/18 01:47:56;;;;;;;28.93;7.00;;;;;;;;;;6089026;23;20234;-89
2023/12/18 01:51:02;;;;;;;19.27;7.13;;;;;;;;;;6090264;23;20236;-90
2023/12/18 01:54:07;;;;;;;14.00;6.60;;;;;;;;;;6087832;23;20173;-90
2023/12/18 01:57:15;;;;;;;18.40;6.40;;;;;;;;;;6087781;23;20154;-89
2023/12/18 02:00:21;;;;;;;22.30;6.50;;;;;;;;;;6089365;23;20237;-91
2023/12/18 02:03:26;;;;;;;19.40;6.00;;;;;;;;;;6090328;23;20165;-91
2023/12/18 02:06:32;;;;;;;13.70;5.67;;;;;;;;;;6088950;23;20780;-90
2023/12/18 02:09:37;;;;;;;16.73;5.83;;;;;;;;;;6090098;23;20173;-89
2023/12/18 02:12:42;;;;;;;14.03;5.90;;;;;;;;;;6089326;23;20162;-90
2023/12/18 02:15:48;;;;;;;15.30;6.23;;;;;;;;;;6089836;23;20231;-90
2023/12/18 02:18:55;;;;;;;19.13;6.60;;;;;;;;;;6090645;23;20237;-89
2023/12/18 02:22:00;;;;;;;13.47;6.20;;;;;;;;;;6088625;23;20193;-90
2023/12/18 02:25:07;;;;;;;19.30;6.90;;;;;;;;;;6088607;23;20193;-90
2023/12/18 02:28:12;;;;;;;24.80;7.00;;;;;;;;;;6090906;23;20178;-89
2023/12/18 02:31:18;;;;;;;42.33;8.07;;;;;;;;;;6089778;23;20178;-89
2023/12/18 02:34:23;;;;;;;20.30;7.30;;;;;;;;;;6090309;23;20173;-89
2023/12/18 02:37:28;;;;;;;35.43;7.33;;;;;;;;;;6088401;23;20174;-89
2023/12/18 02:40:35;;;;;;;26.70;7.47;;;;;;;;;;6088719;23;20178;-91
2023/12/18 02:43:41;;;;;;;33.07;7.47;;;;;;;;;;6087017;23;20610;-90
2023/12/18 02:46:45;;;;;;;27.83;8.33;;;;;;;;;;6089643;23;20161;-90
2023/12/18 02:49:50;;;;;;;25.20;7.70;;;;;;;;;;6090664;23;20174;-89
2023/12/18 02:52:55;;;;;;;17.83;8.27;;;;;;;;;;6091674;23;20502;-90
2023/12/18 02:56:02;;;;;;;20.60;7.20;;;;;;;;;;6091744;23;20210;-91
2023/12/18 02:59:08;;;;;;;18.93;6.77;;;;;;;;;;6091302;23;20273;-90
2023/12/18 03:02:13;;;;;;;29.90;7.47;;;;;;;;;;6089474;23;20198;-91
2023/12/18 03:05:18;;;;;;;19.60;6.57;;;;;;;;;;6091794;23;20218;-89
2023/12/18 03:08:23;;;;;;;45.83;7.13;;;;;;;;;;6091780;23;20173;-91
2023/12/18 03:11:29;;;;;;;43.80;8.10;;;;;;;;;;6092565;23;20166;-89
2023/12/18 03:14:34;;;;;;;26.73;7.90;;;;;;;;;;6092725;23;20193;-88
2023/12/18 03:17:43;;;;;;;33.93;7.43;;;;;;;;;;6091281;23;20518;-88
2023/12/18 03:20:48;;;;;;;30.20;8.03;;;;;;;;;;6090633;23;20181;-90
2023/12/18 03:23:53;;;;;;;41.83;7.57;;;;;;;;;;6093077;23;20153;-91
2023/12/18 03:27:00;;;;;;;31.40;7.67;;;;;;;;;;6063223;23;20178;-89
2023/12/18 03:30:06;;;;;;;27.17;7.67;;;;;;;;;;6063763;23;20174;-89
2023/12/18 03:33:11;;;;;;;18.47;7.53;;;;;;;;;;6062895;23;20512;-88
2023/12/18 03:36:16;;;;;;;24.50;6.87;;;;;;;;;;6063636;23;20170;-89
2023/12/18 03:39:21;;;;;;;46.47;7.07;;;;;;;;;;6063566;23;20174;-89
2023/12/18 03:42:27;;;;;;;18.47;6.87;;;;;;;;;;6061976;23;20197;-90
2023/12/18 03:45:32;;;;;;;24.63;6.77;;;;;;;;;;6062784;23;20226;-90
2023/12/18 03:48:37;;;;;;;21.83;6.47;;;;;;;;;;6061871;23;20627;-90
2023/12/18 03:51:42;;;;;;;26.00;6.93;;;;;;;;;;6063175;23;20192;-89
2023/12/18 03:54:47;;;;;;;24.13;6.40;;;;;;;;;;6062522;23;20170;-90
2023/12/18 03:57:53;;;;;;;23.40;6.57;;;;;;;;;;6061758;23;20178;-91
2023/12/18 04:00:58;;;;;;;26.93;6.20;;;;;;;;;;6062455;23;20182;-91
2023/12/18 04:04:03;;;;;;;39.97;6.57;;;;;;;;;;6061333;23;20291;-91
2023/12/18 04:07:08;;;;;;;34.37;6.60;;;;;;;;;;6060595;23;20166;-90
2023/12/18 04:10:14;;;;;;;27.37;6.50;;;;;;;;;;6061335;23;20155;-89
2023/12/18 04:13:21;;;;;;;64.23;7.73;;;;;;;;;;6060621;23;20183;-90
2023/12/18 04:16:26;;;;;;;24.73;6.03;;;;;;;;;;6059931;23;20169;-88
2023/12/18 04:19:33;;;;;;;22.97;6.50;;;;;;;;;;6045464;23;20182;-89
2023/12/18 04:22:38;;;;;;;51.00;6.93;;;;;;;;;;6059691;23;20265;-89
2023/12/18 04:25:43;;;;;;;40.77;7.37;;;;;;;;;;6080160;23;20221;-89
2023/12/18 04:28:49;;;;;;;25.70;6.77;;;;;;;;;;6091917;23;20174;-90
2023/12/18 04:31:55;;;;;;;35.80;6.23;;;;;;;;;;6090880;23;20170;-89
2023/12/18 04:35:02;;;;;;;22.97;6.80;;;;;;;;;;6090275;23;20195;-88
2023/12/18 04:38:07;;;;;;;35.37;7.03;;;;;;;;;;6090431;23;20153;-91
2023/12/18 04:41:18;;;;;;;27.73;6.50;;;;;;;;;;6090803;23;20227;-90
2023/12/18 04:44:25;;;;;;;21.93;5.40;;;;;;;;;;6091099;23;20173;-90
2023/12/18 04:47:30;;;;;;;19.13;5.67;;;;;;;;;;6090879;23;20626;-89
2023/12/18 04:50:35;;;;;;;14.17;6.00;;;;;;;;;;6091816;23;20280;-89
2023/12/18 04:53:41;;;;;;;13.57;4.90;;;;;;;;;;6089166;23;20178;-89
2023/12/18 04:56:47;;;;;;;12.77;5.93;;;;;;;;;;6090715;23;20177;-89
2023/12/18 04:59:53;;;;;;;18.60;5.43;;;;;;;;;;6091029;23;20174;-89
2023/12/18 05:02:58;;;;;;;19.43;5.60;;;;;;;;;;6089589;23;20181;-89
2023/12/18 05:06:03;;;;;;;13.80;5.87;;;;;;;;;;6090054;23;20170;-88
2023/12/18 05:09:07;;;;;;;18.20;6.20;;;;;;;;;;6089430;23;20173;-90
2023/12/18 05:12:13;;;;;;;14.80;6.57;;;;;;;;;;6087366;23;20173;-89
2023/12/18 05:15:21;;;;;;;27.87;7.23;;;;;;;;;;6089036;23;20154;-91
2023/12/18 05:18:26;;;;;;;15.50;6.83;;;;;;;;;;6091108;23;20177;-87
2023/12/18 05:21:31;;;;;;;12.87;6.07;;;;;;;;;;6092371;23;20285;-88
2023/12/18 05:24:36;;;;;;;20.70;6.30;;;;;;;;;;6092658;23;20185;-89
2023/12/18 05:27:41;;;;;;;18.17;6.53;;;;;;;;;;6091594;23;20162;-90
2023/12/18 05:30:48;;;;;;;17.33;7.03;;;;;;;;;;6092709;23;20161;-90
2023/12/18 05:33:54;;;;;;;18.90;6.27;;;;;;;;;;6092605;23;20166;-88
2023/12/18 05:37:00;;;;;;;18.63;6.33;;;;;;;;;;6091889;23;20182;-89
2023/12/18 05:40:05;;;;;;;20.03;6.77;;;;;;;;;;6093728;23;20249;-89
2023/12/18 05:43:10;;;;;;;26.40;7.43;;;;;;;;;;6090848;23;20169;-89
2023/12/18 05:46:17;;;;;;;23.47;6.87;;;;;;;;;;6091875;23;20217;-90
2023/12/18 05:49:23;;;;;;;27.50;7.87;;;;;;;;;;6092960;23;20514;-88
2023/12/18 05:52:28;;;;;;;17.10;7.30;;;;;;;;;;6092115;23;20181;-90
2023/12/18 05:55:32;;;;;;;20.37;7.63;;;;;;;;;;6091559;23;20210;-88
2023/12/18 05:58:38;;;;;;;16.60;7.27;;;;;;;;;;6093030;23;20169;-90
2023/12/18 06:01:44;;;;;;;22.67;6.93;;;;;;;;;;6093603;23;20190;-90
2023/12/18 06:04:51;;;;;;;20.67;6.67;;;;;;;;;;6091570;23;20235;-89
2023/12/18 06:07:56;;;;;;;17.07;6.33;;;;;;;;;;6087805;23;20300;-90
2023/12/18 06:11:01;;;;;;;21.87;6.37;;;;;;;;;;6088362;23;20158;-90
2023/12/18 06:14:07;;;;;;;15.33;6.63;;;;;;;;;;6089708;23;20226;-90
2023/12/18 06:17:13;;;;;;;22.33;7.13;;;;;;;;;;6090239;23;20189;-90
2023/12/18 06:20:18;;;;;;;13.73;6.27;;;;;;;;;;6092098;23;20154;-87
2023/12/18 06:23:26;;;;;;;16.97;6.83;;;;;;;;;;6091806;23;20251;-89
2023/12/18 06:26:31;;;;;;;23.67;6.63;;;;;;;;;;6090015;23;20292;-89
2023/12/18 06:29:37;;;;;;;13.97;5.53;;;;;;;;;;6094560;23;20189;-88
2023/12/18 06:32:44;;;;;;;16.53;6.13;;;;;;;;;;6092126;23;20177;-88
2023/12/18 06:35:49;;;;;;;16.17;5.87;;;;;;;;;;6094174;23;20158;-90
2023/12/18 06:38:55;;;;;;;15.20;5.97;;;;;;;;;;6096068;23;20197;-89
2023/12/18 06:42:00;;;;;;;13.50;5.90;;;;;;;;;;6093222;23;20830;-90
2023/12/18 06:45:06;;;;;;;13.53;6.00;;;;;;;;;;6091080;23;20174;-90
2023/12/18 06:48:12;;;;;;;12.37;4.50;;;;;;;;;;6091640;23;20513;-91
2023/12/18 06:51:18;;;;;;;11.20;4.97;;;;;;;;;;6072544;23;20169;-87
2023/12/18 06:54:23;;;;;;;12.23;6.27;;;;;;;;;;6090908;23;20702;-90
2023/12/18 06:57:28;;;;;;;11.83;5.60;;;;;;;;;;6091565;23;20174;-89
2023/12/18 07:00:33;;;;;;;12.30;5.73;;;;;;;;;;6093327;23;20170;-88
2023/12/18 07:03:40;;;;;;;14.63;5.73;;;;;;;;;;6093446;23;20170;-89
2023/12/18 07:06:45;;;;;;;13.33;5.90;;;;;;;;;;6092378;23;20209;-90
2023/12/18 07:09:51;;;;;;;11.53;5.10;;;;;;;;;;6096274;23;20211;-89
2023/12/18 07:12:57;;;;;;;16.73;7.33;;;;;;;;;;6093436;23;20182;-91
2023/12/18 07:16:02;;;;;;;12.93;6.60;;;;;;;;;;6095456;23;20218;-90
2023/12/18 07:19:08;;;;;;;17.70;7.47;;;;;;;;;;6093513;23;20170;-89
2023/12/18 07:22:13;;;;;;;12.23;6.43;;;;;;;;;;6093317;23;20194;-88
2023/12/18 07:25:19;;;;;;;17.83;8.10;;;;;;;;;;6094821;23;20177;-87
2023/12/18 07:28:26;;;;;;;11.40;5.63;;;;;;;;;;6094844;23;20249;-90
2023/12/18 07:31:31;;;;;;;15.83;7.03;;;;;;;;;;6078190;23;20173;-91
2023/12/18 07:34:39;;;;;;;24.10;9.27;;;;;;;;;;6093617;23;20174;-89
2023/12/18 07:37:44;;;;;;;18.17;6.93;;;;;;;;;;6094692;23;20170;-89
2023/12/18 07:40:50;;;;;;;21.30;8.27;;;;;;;;;;6092967;23;20173;-89
2023/12/18 07:43:59;;;;;;;21.90;8.60;;;;;;;;;;6094433;23;20178;-87
2023/12/18 07:47:08;;;;;;;16.80;7.33;;;;;;;;;;6095473;23;20158;-91
2023/12/18 07:50:15;;;;;;;14.17;5.50;;;;;;;;;;6096035;23;20266;-89
2023/12/18 07:53:20;;;;;;;17.87;6.10;;;;;;;;;;6091337;23;20181;-89
2023/12/18 07:56:26;;;;;;;12.67;5.73;;;;;;;;;;6091602;23;20161;-92
2023/12/18 07:59:32;;;;;;;12.83;5.70;;;;;;;;;;6094593;23;20186;-89
2023/12/18 08:02:37;;;;;;;12.37;6.30;;;;;;;;;;6090735;23;20277;-89
2023/12/18 08:05:44;;;;;;;15.30;6.90;;;;;;;;;;6094461;23;20206;-89
2023/12/18 08:08:49;;;;;;;18.30;6.77;;;;;;;;;;6091765;23;20178;-91
2023/12/18 08:11:54;;;;;;;16.77;6.77;;;;;;;;;;6094448;23;20166;-89
2023/12/18 08:14:59;;;;;;;15.83;7.37;;;;;;;;;;6092447;23;20161;-91
2023/12/18 08:18:05;;;;;;;15.50;6.97;;;;;;;;;;6091625;23;20170;-91
2023/12/18 08:21:14;;;;;;;12.43;6.17;;;;;;;;;;6094519;23;20641;-89
2023/12/18 08:24:20;;;;;;;17.23;5.60;;;;;;;;;;6094316;23;20182;-92
2023/12/18 08:27:25;;;;;;;20.87;6.63;;;;;;;;;;6094241;23;20157;-91
2023/12/18 08:30:30;;;;;;;18.43;7.60;;;;;;;;;;6096846;23;20773;-90
2023/12/18 08:33:35;;;;;;;15.47;6.93;;;;;;;;;;6096592;23;20246;-89
2023/12/18 08:36:44;;;;;;;19.20;7.73;;;;;;;;;;6099923;23;20170;-88
2023/12/18 08:39:59;;;;;;;15.83;7.23;;;;;;;;;;6095658;23;20214;-90
2023/12/18 08:43:05;;;;;;;17.17;7.57;;;;;;;;;;6096498;23;20254;-90
2023/12/18 08:46:11;;;;;;;15.17;6.07;;;;;;;;;;6094914;23;20174;-88
2023/12/18 08:49:16;;;;;;;13.70;6.13;;;;;;;;;;6093613;23;20170;-91
2023/12/18 08:52:25;;;;;;;17.23;7.10;;;;;;;;;;6092622;23;20166;-87
2023/12/18 08:55:30;;;;;;;11.03;6.03;;;;;;;;;;6094521;23;20286;-89
2023/12/18 08:58:37;;;;;;;13.00;6.47;;;;;;;;;;6092524;23;20911;-89
2023/12/18 09:01:42;;;;;;;15.67;6.27;;;;;;;;;;6091731;23;20189;-89
2023/12/18 09:04:48;;;;;;;19.33;7.00;;;;;;;;;;6093917;23;20177;-88
2023/12/18 09:07:54;;;;;;;18.30;6.27;;;;;;;;;;6094135;23;20242;-91
2023/12/18 09:11:12;;;;;;;14.23;6.60;;;;;;;;;;6095279;23;20157;-88
2023/12/18 09:14:19;;;;;;;16.40;7.40;;;;;;;;;;6089743;23;20177;-89
2023/12/18 09:17:26;;;;;;;13.27;6.60;;;;;;;;;;6090747;23;20189;-90
2023/12/18 09:20:31;;;;;;;16.87;5.80;;;;;;;;;;6090969;23;20174;-90
2023/12/18 09:23:37;;;;;;;11.87;5.73;;;;;;;;;;6091126;23;20225;-90
2023/12/18 09:26:42;;;;;;;14.37;6.63;;;;;;;;;;6106679;23;20169;-89
2023/12/18 09:29:47;;;;;;;12.87;6.13;;;;;;;;;;6089406;23;20173;-89
2023/12/18 09:32:53;;;;;;;14.10;6.83;;;;;;;;;;6090731;23;20178;-90
2023/12/18 09:35:58;;;;;;;13.50;6.57;;;;;;;;;;6090967;23;20644;-89
2023/12/18 09:39:09;;;;;;;14.60;7.33;;;;;;;;;;6093860;23;20249;-90
2023/12/18 09:42:15;;;;;;;14.50;6.60;;;;;;;;;;6089757;23;20677;-90
2023/12/18 09:45:22;;;;;;;14.53;6.90;;;;;;;;;;6089841;23;20166;-91
2023/12/18 09:48:27;;;;;;;15.37;7.60;;;;;;;;;;6089258;23;20198;-90
2023/12/18 09:51:32;;;;;;;14.00;6.60;;;;;;;;;;6089769;23;20169;-90
2023/12/18 09:54:42;;;;;;;17.20;7.63;;;;;;;;;;6088331;23;20173;-91
2023/12/18 09:57:49;;;;;;;18.07;8.03;;;;;;;;;;6089752;23;20170;-90
2023/12/18 10:00:55;;;;;;;22.00;8.43;;;;;;;;;;6090593;23;20182;-91
2023/12/18 10:04:00;;;;;;;14.17;6.73;;;;;;;;;;6089992;23;20202;-90
2023/12/18 10:07:05;;;;;;;15.57;7.30;;;;;;;;;;6092417;23;20170;-92
2023/12/18 10:10:12;;;;;;;16.73;7.40;;;;;;;;;;6091475;23;20166;-89
2023/12/18 10:13:17;;;;;;;18.07;7.87;;;;;;;;;;6091609;23;20174;-91
2023/12/18 10:16:22;;;;;;;14.03;7.13;;;;;;;;;;6091720;23;20501;-91
2023/12/18 10:19:28;;;;;;;16.20;7.67;;;;;;;;;;6093808;23;20174;-91
2023/12/18 10:22:33;;;;;;;20.53;8.30;;;;;;;;;;6094062;23;20285;-92
2023/12/18 10:25:39;;;;;;;16.13;8.13;;;;;;;;;;6093780;23;20173;-89
2023/12/18 10:28:44;;;;;;;29.87;13.00;;;;;;;;;;6094301;23;20170;-91
2023/12/18 10:31:50;;;;;;;18.37;8.43;;;;;;;;;;6093417;23;20170;-90
2023/12/18 10:34:55;;;;;;;16.27;8.97;;;;;;;;;;6096781;23;20154;-90
2023/12/18 10:38:02;;;;;;;18.13;9.20;;;;;;;;;;6095770;23;20174;-91
2023/12/18 10:41:11;;;;;;;18.07;9.20;;;;;;;;;;6096278;23;20182;-90
2023/12/18 10:44:17;;;;;;;19.70;9.03;;;;;;;;;;6095885;23;20662;-91
2023/12/18 10:47:22;;;;;;;17.57;9.20;;;;;;;;;;6095349;23;20499;-90
2023/12/18 10:50:31;;;;;;;19.37;9.60;;;;;;;;;;6095540;23;20154;-90
2023/12/18 10:53:38;;;;;;;22.87;9.80;;;;;;;;;;6096202;23;20214;-87
2023/12/18 10:56:46;;;;;;;21.87;10.10;;;;;;;;;;6096223;23;20182;-88
2023/12/18 10:59:51;;;;;;;21.03;10.20;;;;;;;;;;6115551;23;20514;-89
2023/12/18 11:02:58;;;;;;;22.20;10.40;;;;;;;;;;6110844;23;20193;-91
2023/12/18 11:06:03;;;;;;;21.13;10.77;;;;;;;;;;6094812;23;20163;-90
2023/12/18 11:09:08;;;;;;;23.60;10.17;;;;;;;;;;6111611;23;20174;-90
2023/12/18 11:12:17;;;;;;;25.00;10.97;;;;;;;;;;6096911;23;20195;-90
2023/12/18 11:15:29;;;;;;;22.57;10.40;;;;;;;;;;6094040;23;20165;-90
2023/12/18 11:18:39;;;;;;;24.27;10.83;;;;;;;;;;6112002;23;20206;-90
2023/12/18 11:21:44;;;;;;;19.80;10.17;;;;;;;;;;6112471;23;20158;-90
2023/12/18 11:24:52;;;;;;;24.57;11.40;;;;;;;;;;6095017;23;20194;-91
2023/12/18 11:28:02;;;;;;;23.60;10.87;;;;;;;;;;6093854;23;20173;-89
2023/12/18 11:31:08;;;;;;;25.70;11.90;;;;;;;;;;6109450;23;20230;-91
2023/12/18 11:34:13;;;;;;;22.20;10.87;;;;;;;;;;6109183;23;20220;-91
2023/12/18 11:37:18;;;;;;;23.63;10.90;;;;;;;;;;6093283;23;20154;-89
2023/12/18 11:47:29;;;;;;;29.83;13.90;;;;;;;;;;6093901;23;20190;-90
2023/12/18 11:50:36;;;;;;;27.20;11.67;;;;;;;;;;6094850;23;20233;-91
2023/12/18 11:53:44;;;;;;;25.50;10.77;;;;;;;;;;6110910;23;20170;-92
2023/12/18 11:56:51;;;;;;;21.77;11.03;;;;;;;;;;6110619;23;20214;-90
2023/12/18 11:59:57;;;;;;;21.80;11.40;;;;;;;;;;6095843;23;20495;-90
2023/12/18 12:03:03;;;;;;;22.70;11.77;;;;;;;;;;6095214;23;20197;-87
2023/12/18 12:06:09;;;;;;;21.70;11.40;;;;;;;;;;6095474;23;20178;-90
2023/12/18 12:09:15;;;;;;;22.97;11.47;;;;;;;;;;6112353;23;20178;-91
2023/12/18 12:12:20;;;;;;;20.67;10.33;;;;;;;;;;6091301;23;20163;-89
2023/12/18 12:15:28;;;;;;;21.77;10.90;;;;;;;;;;6092398;23;20161;-91
2023/12/18 12:18:33;;;;;;;25.07;10.93;;;;;;;;;;6094042;23;20177;-89
2023/12/18 12:21:39;;;;;;;23.13;11.17;;;;;;;;;;6108817;23;20181;-90
2023/12/18 12:24:45;;;;;;;24.57;10.67;;;;;;;;;;6094051;23;20237;-92
2023/12/18 12:27:50;;;;;;;20.37;10.63;;;;;;;;;;6091831;23;20626;-90
2023/12/18 12:30:57;;;;;;;24.70;11.47;;;;;;;;;;6111334;23;20491;-91
2023/12/18 12:34:14;;;;;;;22.23;11.40;;;;;;;;;;6112284;23;20166;-89
2023/12/18 12:37:21;;;;;;;22.47;11.90;;;;;;;;;;6096455;23;20268;-90
2023/12/18 12:40:37;;;;;;;26.33;11.63;;;;;;;;;;6110981;23;20579;-90
2023/12/18 12:43:42;;;;;;;23.90;11.97;;;;;;;;;;6090342;23;20237;-86
2023/12/18 12:46:52;;;;;;;31.60;12.90;;;;;;;;;;6110771;23;20245;-90
2023/12/18 12:50:03;;;;;;;24.60;12.87;;;;;;;;;;6109160;23;20210;-91
2023/12/18 12:53:09;;;;;;;27.90;13.00;;;;;;;;;;6107752;23;20622;-90
2023/12/18 12:56:14;;;;;;;27.43;12.63;;;;;;;;;;6091777;23;20162;-89
2023/12/18 12:59:21;;;;;;;29.37;12.63;;;;;;;;;;6092284;23;20186;-91
2023/12/18 13:02:29;;;;;;;25.90;12.00;;;;;;;;;;6093947;23;20170;-92
2023/12/18 13:05:36;;;;;;;24.67;12.40;;;;;;;;;;6112897;23;20174;-90
2023/12/18 13:08:41;;;;;;;24.93;12.67;;;;;;;;;;6094678;23;20173;-91
2023/12/18 13:11:46;;;;;;;26.80;12.77;;;;;;;;;;6112186;23;20250;-89
2023/12/18 13:14:51;;;;;;;28.77;13.70;;;;;;;;;;6092440;23;20165;-91
2023/12/18 13:17:58;;;;;;;28.53;13.63;;;;;;;;;;6095549;23;20182;-91
2023/12/18 13:21:04;;;;;;;27.13;12.93;;;;;;;;;;6110852;23;20181;-93
2023/12/18 13:24:09;;;;;;;38.83;17.53;;;;;;;;;;6111424;23;20814;-89
2023/12/18 13:27:14;;;;;;;33.00;16.17;;;;;;;;;;6082565;23;20228;-91
2023/12/18 13:30:19;;;;;;;26.07;13.83;;;;;;;;;;6084040;23;20194;-89
2023/12/18 13:33:26;;;;;;;25.23;12.43;;;;;;;;;;6066779;23;20174;-91
2023/12/18 13:36:31;;;;;;;24.57;12.63;;;;;;;;;;6083933;23;20171;-89
2023/12/18 13:39:37;;;;;;;24.90;13.03;;;;;;;;;;6052469;23;20170;-89
2023/12/18 13:42:42;;;;;;;25.43;13.53;;;;;;;;;;6083990;23;20186;-90
2023/12/18 13:45:47;;;;;;;29.97;14.70;;;;;;;;;;6083901;23;20239;-90
2023/12/18 13:48:54;;;;;;;32.37;14.67;;;;;;;;;;6082947;23;20229;-90
2023/12/18 13:52:00;;;;;;;27.47;13.40;;;;;;;;;;6081030;23;20488;-87
2023/12/18 13:55:06;;;;;;;27.70;13.30;;;;;;;;;;6083406;23;20159;-89
2023/12/18 13:58:12;;;;;;;29.00;14.13;;;;;;;;;;6086000;23;20166;-91
2023/12/18 14:01:17;;;;;;;26.93;12.53;;;;;;;;;;6086450;23;20179;-91
2023/12/18 14:04:30;;;;;;;26.30;12.60;;;;;;;;;;6083208;23;20274;-90
2023/12/18 14:07:36;;;;;;;24.67;13.30;;;;;;;;;;6065149;23;20170;-88
2023/12/18 14:10:44;;;;;;;26.50;12.87;;;;;;;;;;6084805;23;20151;-90
2023/12/18 14:13:55;;;;;;;25.57;12.60;;;;;;;;;;6065925;23;20245;-89
2023/12/18 14:17:00;;;;;;;24.33;12.60;;;;;;;;;;6066700;23;20212;-91
2023/12/18 14:20:07;;;;;;;26.13;12.30;;;;;;;;;;6083001;23;20270;-90
2023/12/18 14:23:16;;;;;;;54.87;24.10;;;;;;;;;;6079847;23;20250;-88
2023/12/18 14:26:21;;;;;;;63.83;30.43;;;;;;;;;;6106856;23;20307;-91
2023/12/18 14:29:28;;;;;;;40.87;20.67;;;;;;;;;;6094544;23;20171;-89
2023/12/18 14:32:35;;;;;;;28.00;14.87;;;;;;;;;;6095543;23;20174;-90
2023/12/18 14:35:44;;;;;;;29.63;15.60;;;;;;;;;;6096713;23;20174;-91
2023/12/18 14:38:51;;;;;;;25.20;13.83;;;;;;;;;;6095222;23;20634;-86
2023/12/18 14:42:05;;;;;;;23.43;13.07;;;;;;;;;;6097133;23;20173;-91
2023/12/18 14:45:10;;;;;;;23.40;13.00;;;;;;;;;;6115330;23;20206;-90
2023/12/18 14:48:17;;;;;;;51.90;21.37;;;;;;;;;;6098138;23;20174;-90
2023/12/18 14:51:25;;;;;;;36.93;17.30;;;;;;;;;;6100016;23;20191;-89
2023/12/18 14:54:38;;;;;;;24.73;13.23;;;;;;;;;;6117549;23;20238;-88
2023/12/18 14:57:44;;;;;;;22.57;11.60;;;;;;;;;;6114139;23;20173;-91
2023/12/18 15:00:49;;;;;;;23.87;11.60;;;;;;;;;;6115612;23;20658;-92
2023/12/18 15:03:56;;;;;;;27.03;12.10;;;;;;;;;;6119827;23;20230;-90
2023/12/18 15:07:05;;;;;;;24.63;11.83;;;;;;;;;;6100938;23;20166;-90
2023/12/18 15:10:11;;;;;;;33.57;14.10;;;;;;;;;;6099818;23;20174;-86
2023/12/18 15:13:25;;;;;;;25.23;12.67;;;;;;;;;;6098505;23;20174;-87
2023/12/18 15:16:30;;;;;;;20.00;11.13;;;;;;;;;;6117816;23;20170;-88
2023/12/18 15:19:40;;;;;;;24.13;11.33;;;;;;;;;;6120508;23;20214;-91
2023/12/18 15:22:49;;;;;;;23.37;11.27;;;;;;;;;;6119797;23;20177;-88
2023/12/18 15:26:16;;;;;;;22.90;11.87;;;;;;;;;;6101386;23;20246;-89
2023/12/18 15:36:02;;;;;;;29.30;13.03;;;;;;;;;;6098167;23;20189;-88
2023/12/18 15:45:53;;;;;;;28.97;12.33;;;;;;;;;;6102995;23;20174;-89
2023/12/18 15:49:01;;;;;;;26.27;12.50;;;;;;;;;;6100889;23;20161;-87
2023/12/18 15:52:07;;;;;;;23.80;12.43;;;;;;;;;;6098706;23;20253;-90
2023/12/18 15:55:17;;;;;;;25.23;12.37;;;;;;;;;;6099918;23;20210;-90
2023/12/18 15:58:25;;;;;;;29.13;12.73;;;;;;;;;;6100770;23;20177;-89
2023/12/18 16:01:32;;;;;;;27.63;12.33;;;;;;;;;;6118237;23;20223;-90
2023/12/18 16:04:37;;;;;;;28.23;12.87;;;;;;;;;;6100399;23;20226;-87
2023/12/18 16:07:45;;;;;;;34.77;14.27;;;;;;;;;;6116820;23;20169;-88
2023/12/18 16:10:54;;;;;;;29.93;14.60;;;;;;;;;;6103193;23;20173;-88
2023/12/18 16:14:01;;;;;;;26.80;13.00;;;;;;;;;;6119856;23;20174;-88
2023/12/18 16:17:07;;;;;;;27.47;14.03;;;;;;;;;;6116559;23;20166;-89
2023/12/18 16:20:13;;;;;;;31.10;15.50;;;;;;;;;;6113325;23;20169;-88
2023/12/18 16:23:19;;;;;;;34.13;13.73;;;;;;;;;;6102446;23;20169;-88
2023/12/18 16:26:42;;;;;;;33.67;14.73;;;;;;;;;;6102808;23;20185;-88
2023/12/18 23:00:41;;;;;;;80.87;11.30;;;;;;;;;;6044372;23;20258;-87
2023/12/18 23:03:57;;;;;;;36.13;10.07;;;;;;;;;;6093518;23;20201;-87
2023/12/18 23:07:09;;;;;;;25.40;9.23;;;;;;;;;;6081724;23;20321;-86
2023/12/18 23:10:20;;;;;;;35.67;8.90;;;;;;;;;;6091034;23;20174;-92
2023/12/18 23:13:31;;;;;;;73.70;9.77;;;;;;;;;;6092969;23;20282;-88
2023/12/18 23:16:45;;;;;;;42.20;9.47;;;;;;;;;;6081735;23;20182;-87
2023/12/18 23:19:57;;;;;;;86.13;10.73;;;;;;;;;;6093201;23;20252;-89
2023/12/18 23:23:09;;;;;;;85.03;9.50;;;;;;;;;;6110049;23;20178;-94
2023/12/18 23:26:20;;;;;;;57.80;9.20;;;;;;;;;;6093463;23;20193;-90
2023/12/18 23:29:32;;;;;;;51.30;8.73;;;;;;;;;;6093065;23;20174;-88
2023/12/18 23:32:45;;;;;;;41.47;9.17;;;;;;;;;;6092876;23;20178;-84
2023/12/18 23:35:56;;;;;;;72.17;9.07;;;;;;;;;;6094274;23;20178;-85
2023/12/18 23:39:08;;;;;;;45.03;9.63;;;;;;;;;;6092874;23;20178;-92
2023/12/18 23:42:19;;;;;;;66.37;9.63;;;;;;;;;;6092077;23;20221;-88
2023/12/18 23:45:32;;;;;;;76.97;10.60;;;;;;;;;;6108649;23;20185;-89
2023/12/18 23:48:45;;;;;;;35.73;8.53;;;;;;;;;;6088946;23;20174;-88
2023/12/18 23:51:56;;;;;;;29.03;9.00;;;;;;;;;;6088760;23;20177;-89
2023/12/18 23:55:08;;;;;;;27.97;8.67;;;;;;;;;;6089655;23;20177;-88
2023/12/18 23:58:19;;;;;;;32.77;7.70;;;;;;;;;;6106446;23;20173;-88
